createdAt,value
2023-04-15T00:00:03.660Z,7.15
2023-04-15T00:02:31.498Z,6.43
2023-04-15T00:04:59.271Z,7.03
2023-04-15T00:07:26.917Z,6.95
2023-04-15T00:09:56.288Z,6.80
2023-04-15T00:12:25.488Z,7.53
2023-04-15T00:15:02.363Z,7.15
2023-04-15T00:17:30.087Z,6.93
2023-04-15T00:19:59.873Z,7.40
2023-04-15T00:22:28.403Z,7.35
2023-04-15T00:24:56.508Z,7.78
2023-04-15T00:27:26.235Z,6.93
2023-04-15T00:29:53.934Z,7.85
2023-04-15T00:32:22.090Z,7.43
2023-04-15T00:34:49.812Z,7.73
2023-04-15T00:37:17.525Z,7.88
2023-04-15T00:39:45.230Z,8.15
2023-04-15T00:42:14.625Z,7.95
2023-04-15T00:44:43.965Z,6.90
2023-04-15T00:47:12.880Z,7.85
2023-04-15T00:49:40.876Z,7.07
2023-04-15T00:52:09.131Z,7.88
2023-04-15T00:54:37.585Z,7.40
2023-04-15T00:57:07.054Z,8.02
2023-04-15T00:59:35.353Z,8.50
2023-04-15T01:02:04.764Z,8.77
2023-04-15T01:04:33.583Z,8.02
2023-04-15T01:07:01.337Z,8.68
2023-04-15T01:09:29.360Z,7.78
2023-04-15T01:11:57.830Z,8.38
2023-04-15T01:14:25.955Z,9.20
2023-04-15T01:16:54.238Z,8.48
2023-04-15T01:19:23.349Z,8.55
2023-04-15T01:21:51.062Z,8.82
2023-04-15T01:24:19.860Z,9.82
2023-04-15T01:27:03.699Z,9.83
2023-04-15T01:29:33.425Z,9.38
2023-04-15T01:32:01.113Z,9.48
2023-04-15T01:34:28.830Z,9.45
2023-04-15T01:36:56.676Z,9.80
2023-04-15T01:39:24.430Z,9.52
2023-04-15T01:41:52.280Z,8.43
2023-04-15T01:44:21.747Z,9.15
2023-04-15T01:47:05.625Z,9.60
2023-04-15T01:49:33.811Z,8.88
2023-04-15T01:52:01.609Z,9.05
2023-04-15T01:54:29.272Z,8.52
2023-04-15T01:56:57.331Z,8.77
2023-04-15T01:59:26.510Z,9.25
2023-04-15T02:01:54.250Z,9.27
2023-04-15T02:04:21.937Z,9.23
2023-04-15T02:06:49.740Z,8.90
2023-04-15T02:09:17.822Z,8.70
2023-04-15T02:11:45.784Z,9.40
2023-04-15T02:14:13.704Z,8.88
2023-04-15T02:16:42.880Z,9.30
2023-04-15T02:19:10.659Z,9.98
2023-04-15T02:21:38.347Z,10.63
2023-04-15T02:24:06.655Z,10.32
2023-04-15T02:26:34.371Z,10.05
2023-04-15T02:29:02.270Z,10.65
2023-04-15T02:31:30.244Z,10.75
2023-04-15T02:34:00.189Z,10.93
2023-04-15T02:36:29.807Z,11.68
2023-04-15T02:38:57.739Z,10.98
2023-04-15T02:41:27.805Z,10.70
2023-04-15T02:43:55.576Z,12.40
2023-04-15T02:46:23.520Z,17.65
2023-04-15T02:48:51.656Z,22.58
2023-04-15T02:51:22.569Z,18.35
2023-04-15T02:53:50.770Z,13.77
2023-04-15T02:56:19.858Z,12.90
2023-04-15T02:58:50.554Z,11.02
2023-04-15T03:01:18.335Z,10.82
2023-04-15T03:03:46.395Z,11.10
2023-04-15T03:06:14.454Z,10.68
2023-04-15T03:09:05.128Z,10.35
2023-04-15T03:11:35.395Z,10.05
2023-04-15T03:14:04.018Z,10.38
2023-04-15T03:16:31.710Z,10.95
2023-04-15T03:18:59.598Z,9.82
2023-04-15T03:21:27.681Z,10.82
2023-04-15T03:23:56.251Z,10.40
2023-04-15T03:26:30.011Z,9.97
2023-04-15T03:28:58.499Z,9.73
2023-04-15T03:31:26.552Z,9.93
2023-04-15T03:33:54.364Z,10.17
2023-04-15T03:36:22.101Z,10.77
2023-04-15T03:38:50.447Z,10.13
2023-04-15T03:41:18.135Z,10.85
2023-04-15T03:43:47.271Z,11.10
2023-04-15T03:46:15.090Z,10.67
2023-04-15T03:48:42.795Z,10.82
2023-04-15T03:51:10.471Z,10.35
2023-04-15T03:53:38.204Z,10.93
2023-04-15T03:56:06.611Z,11.00
2023-04-15T03:58:34.289Z,11.40
2023-04-15T04:01:03.372Z,11.15
2023-04-15T04:03:31.238Z,11.05
2023-04-15T04:05:59.033Z,10.90
2023-04-15T04:08:27.547Z,10.95
2023-04-15T04:10:55.261Z,10.80
2023-04-15T04:13:22.990Z,11.90
2023-04-15T04:15:50.741Z,11.25
2023-04-15T04:18:19.812Z,11.50
2023-04-15T04:20:47.791Z,11.43
2023-04-15T04:23:15.543Z,11.32
2023-04-15T04:25:43.701Z,12.00
2023-04-15T04:28:11.706Z,12.70
2023-04-15T04:30:39.495Z,12.48
2023-04-15T04:33:07.991Z,12.97
2023-04-15T04:35:37.838Z,13.77
2023-04-15T04:38:05.720Z,13.67
2023-04-15T04:40:33.507Z,14.35
2023-04-15T04:43:01.708Z,15.30
2023-04-15T04:45:29.717Z,15.70
2023-04-15T04:47:57.452Z,15.07
2023-04-15T04:50:25.217Z,15.45
2023-04-15T04:52:54.323Z,15.68
2023-04-15T04:55:22.128Z,16.67
2023-04-15T04:57:49.875Z,16.70
2023-04-15T05:00:17.749Z,16.85
2023-04-15T05:02:45.533Z,16.23
2023-04-15T05:10:45.804Z,16.13
2023-04-15T05:13:13.477Z,16.33
2023-04-15T05:15:43.313Z,16.83
2023-04-15T05:18:11.148Z,16.95
2023-04-15T05:20:38.984Z,16.57
2023-04-15T05:23:06.980Z,16.25
2023-04-15T05:25:34.696Z,16.98
2023-04-15T05:28:03.776Z,16.13
2023-04-15T05:30:31.513Z,16.80
2023-04-15T05:32:59.266Z,16.13
2023-04-15T05:35:27.239Z,15.88
2023-04-15T05:37:54.912Z,15.05
2023-04-15T05:40:22.983Z,15.05
2023-04-15T05:42:51.287Z,14.60
2023-04-15T05:45:20.486Z,14.25
2023-04-15T05:47:50.427Z,14.45
2023-04-15T05:50:18.400Z,14.07
2023-04-15T05:52:46.178Z,14.50
2023-04-15T05:55:16.360Z,13.10
2023-04-15T05:57:44.082Z,13.48
2023-04-15T06:00:13.199Z,12.20
2023-04-15T06:02:42.681Z,12.00
2023-04-15T06:05:11.847Z,12.23
2023-04-15T06:07:39.828Z,11.20
2023-04-15T06:10:08.965Z,11.63
2023-04-15T06:12:36.774Z,11.25
2023-04-15T06:15:05.068Z,11.45
2023-04-15T06:17:32.754Z,12.13
2023-04-15T06:20:01.856Z,10.48
2023-04-15T06:22:29.553Z,11.27
2023-04-15T06:24:57.249Z,12.07
2023-04-15T06:27:24.937Z,11.10
2023-04-15T06:29:52.582Z,11.38
2023-04-15T06:32:20.516Z,11.68
2023-04-15T06:34:48.183Z,11.50
2023-04-15T06:37:17.209Z,11.30
2023-04-15T06:39:45.211Z,10.93
2023-04-15T06:42:13.223Z,11.68
2023-04-15T06:44:41.126Z,11.23
2023-04-15T06:47:09.126Z,11.07
2023-04-15T06:49:37.034Z,11.23
2023-04-15T06:52:05.389Z,11.15
2023-04-15T06:54:34.424Z,11.13
2023-04-15T06:57:02.146Z,11.45
2023-04-15T06:59:29.999Z,11.40
2023-04-15T07:01:57.681Z,10.95
2023-04-15T07:04:25.735Z,10.63
2023-04-15T07:06:54.048Z,10.73
2023-04-15T07:09:21.698Z,9.98
2023-04-15T07:11:51.539Z,11.13
2023-04-15T07:14:19.499Z,10.73
2023-04-15T07:16:47.330Z,10.48
2023-04-15T07:19:15.080Z,10.97
2023-04-15T07:21:42.783Z,10.85
2023-04-15T07:24:10.922Z,10.85
2023-04-15T07:26:38.756Z,10.40
2023-04-15T07:29:07.829Z,10.50
2023-04-15T07:31:36.986Z,9.45
2023-04-15T07:34:05.236Z,9.75
2023-04-15T07:36:32.925Z,9.65
2023-04-15T07:39:02.268Z,9.27
2023-04-15T07:41:30.903Z,8.80
2023-04-15T07:43:58.961Z,8.13
2023-04-15T07:46:28.617Z,9.20
2023-04-15T07:48:56.574Z,9.13
2023-04-15T07:51:24.978Z,9.30
2023-04-15T07:53:52.916Z,8.00
2023-04-15T07:56:20.770Z,8.90
2023-04-15T07:58:48.436Z,9.05
2023-04-15T08:01:16.578Z,9.40
2023-04-15T08:03:46.026Z,7.65
2023-04-15T08:06:14.546Z,8.82
2023-04-15T08:08:43.164Z,8.60
2023-04-15T08:11:10.902Z,8.63
2023-04-15T08:13:38.546Z,8.73
2023-04-15T08:16:18.981Z,8.50
2023-04-15T08:18:48.430Z,8.18
2023-04-15T08:21:16.166Z,9.30
2023-04-15T08:23:44.288Z,8.52
2023-04-15T08:26:12.361Z,8.90
2023-04-15T08:28:41.732Z,8.18
2023-04-15T08:31:10.409Z,8.75
2023-04-15T08:33:38.219Z,8.18
2023-04-15T08:36:07.997Z,8.93
2023-04-15T08:38:36.277Z,8.02
2023-04-15T08:41:07.712Z,7.82
2023-04-15T08:43:36.400Z,8.75
2023-04-15T08:46:05.658Z,8.13
2023-04-15T08:48:34.333Z,8.40
2023-04-15T08:51:02.418Z,8.20
2023-04-15T08:53:32.647Z,7.63
2023-04-15T08:56:01.675Z,7.80
2023-04-15T08:58:29.734Z,7.38
2023-04-15T09:01:21.852Z,7.53
2023-04-15T09:03:50.445Z,7.13
2023-04-15T09:06:18.463Z,7.05
2023-04-15T09:08:47.705Z,7.13
2023-04-15T09:11:15.432Z,7.22
2023-04-15T09:13:43.110Z,6.88
2023-04-15T09:16:11.147Z,7.38
2023-04-15T09:18:39.907Z,6.77
2023-04-15T09:21:09.075Z,6.32
2023-04-15T09:24:02.559Z,7.25
2023-04-15T09:26:35.123Z,6.17
2023-04-15T09:32:19.691Z,6.60
2023-04-15T09:34:48.549Z,6.85
2023-04-15T09:37:31.518Z,6.85
2023-04-15T09:40:01.271Z,6.97
2023-04-15T09:42:29.254Z,6.50
2023-04-15T09:44:57.249Z,7.37
2023-04-15T09:47:32.314Z,6.55
2023-04-15T09:50:01.765Z,7.38
2023-04-15T09:52:29.831Z,7.13
2023-04-15T09:54:59.204Z,7.05
2023-04-15T09:57:35.624Z,6.23
2023-04-15T10:00:04.288Z,6.55
2023-04-15T10:02:32.701Z,6.38
2023-04-15T10:05:01.124Z,6.35
2023-04-15T10:07:28.813Z,5.77
2023-04-15T10:09:57.143Z,5.95
2023-04-15T10:12:24.851Z,6.13
2023-04-15T10:18:21.232Z,6.60
2023-04-15T10:20:49.834Z,6.00
2023-04-15T10:23:18.804Z,5.25
2023-04-15T10:25:47.282Z,5.33
2023-04-15T10:28:16.389Z,5.03
2023-04-15T10:30:44.607Z,5.88
2023-04-15T10:33:12.791Z,5.45
2023-04-15T10:35:42.274Z,5.50
2023-04-15T10:38:37.985Z,5.22
2023-04-15T10:41:21.011Z,5.40
2023-04-15T10:43:51.269Z,4.75
2023-04-15T10:46:22.202Z,4.80
2023-04-15T10:48:51.557Z,4.47
2023-04-15T10:51:31.861Z,4.30
2023-04-15T10:54:00.917Z,4.65
2023-04-15T10:56:30.557Z,4.22
2023-04-15T10:59:00.768Z,4.40
2023-04-15T11:01:53.343Z,4.20
2023-04-15T11:04:56.182Z,4.55
2023-04-15T11:07:37.068Z,4.45
2023-04-15T11:10:05.460Z,3.92
2023-04-15T11:12:36.783Z,4.30
2023-04-15T11:15:29.798Z,4.20
2023-04-15T11:17:58.140Z,4.60
2023-04-15T11:20:26.357Z,3.65
2023-04-15T11:23:13.944Z,4.03
2023-04-15T11:25:44.026Z,4.32
2023-04-15T11:28:13.140Z,3.85
2023-04-15T11:30:41.391Z,3.80
2023-04-15T11:33:28.086Z,4.57
2023-04-15T11:35:56.258Z,3.90
2023-04-15T11:38:25.399Z,3.20
2023-04-15T11:40:53.376Z,3.33
2023-04-15T11:43:22.747Z,3.20
2023-04-15T11:45:52.975Z,3.13
2023-04-15T11:48:21.736Z,3.70
2023-04-15T11:50:54.756Z,3.20
2023-04-15T11:53:22.694Z,2.88
2023-04-15T11:55:52.946Z,2.47
2023-04-15T11:58:22.223Z,3.15
2023-04-15T12:00:52.473Z,2.53
2023-04-15T12:03:23.307Z,2.63
2023-04-15T12:06:10.562Z,2.55
2023-04-15T12:08:54.777Z,3.10
2023-04-15T12:11:33.304Z,2.85
2023-04-15T12:14:05.597Z,2.47
2023-04-15T12:16:49.299Z,2.13
2023-04-15T12:19:20.074Z,2.28
2023-04-15T12:21:49.077Z,2.50
2023-04-15T12:24:16.822Z,2.55
2023-04-15T12:26:48.112Z,2.50
2023-04-15T12:29:17.549Z,2.60
2023-04-15T12:31:52.528Z,2.40
2023-04-15T12:34:27.734Z,2.67
2023-04-15T12:36:55.566Z,3.00
2023-04-15T12:39:24.384Z,2.27
2023-04-15T12:41:53.803Z,2.38
2023-04-15T12:44:23.999Z,2.30
2023-04-15T12:46:53.116Z,2.80
2023-04-15T12:49:21.811Z,2.17
2023-04-15T12:51:50.731Z,2.17
2023-04-15T12:54:19.293Z,2.43
2023-04-15T12:56:47.996Z,2.17
2023-04-15T12:59:18.586Z,2.00
2023-04-15T13:01:46.807Z,2.10
2023-04-15T13:04:14.692Z,2.40
2023-04-15T13:06:42.495Z,2.20
2023-04-15T13:09:10.483Z,2.22
2023-04-15T13:11:38.237Z,2.13
2023-04-15T13:14:07.878Z,2.20
2023-04-15T13:16:37.233Z,2.20
2023-04-15T13:19:05.546Z,2.25
2023-04-15T13:21:35.926Z,2.40
2023-04-15T13:24:05.203Z,2.42
2023-04-15T13:26:33.181Z,2.40
2023-04-15T13:29:06.814Z,2.80
2023-04-15T13:31:35.948Z,2.23
2023-04-15T13:34:03.932Z,2.53
2023-04-15T13:36:31.901Z,2.30
2023-04-15T13:39:00.049Z,2.65
2023-04-15T13:41:27.828Z,2.50
2023-04-15T13:43:55.961Z,2.67
2023-04-15T13:46:23.681Z,2.70
2023-04-15T13:48:52.811Z,2.70
2023-04-15T13:51:20.533Z,2.72
2023-04-15T13:53:48.226Z,2.70
2023-04-15T13:56:16.092Z,2.90
2023-04-15T13:58:43.787Z,2.55
2023-04-15T14:01:11.839Z,2.90
2023-04-15T14:03:39.944Z,2.28
2023-04-15T14:06:09.226Z,2.60
2023-04-15T14:08:36.995Z,2.47
2023-04-15T14:11:04.710Z,2.80
2023-04-15T14:13:32.432Z,3.00
2023-04-15T14:16:00.545Z,3.05
2023-04-15T14:18:28.454Z,2.67
2023-04-15T14:20:56.179Z,3.03
2023-04-15T14:23:25.327Z,2.78
2023-04-15T14:25:53.115Z,3.13
2023-04-15T14:28:20.867Z,3.03
2023-04-15T14:30:48.621Z,2.88
2023-04-15T14:33:16.427Z,2.88
2023-04-15T14:35:44.550Z,2.80
2023-04-15T14:38:12.301Z,2.83
2023-04-15T14:40:42.239Z,2.80
2023-04-15T14:43:10.136Z,2.85
2023-04-15T14:45:40.680Z,2.92
2023-04-15T14:48:12.749Z,2.70
2023-04-15T14:50:40.763Z,2.60
2023-04-15T14:53:08.467Z,2.33
2023-04-15T14:55:36.289Z,2.58
2023-04-15T14:58:06.065Z,2.60
2023-04-15T15:00:34.058Z,2.67
2023-04-15T15:03:02.038Z,2.30
2023-04-15T15:05:29.905Z,2.72
2023-04-15T15:07:57.680Z,2.10
2023-04-15T15:10:44.172Z,2.78
2023-04-15T15:13:14.641Z,2.53
2023-04-15T15:15:42.672Z,2.58
2023-04-15T15:18:11.450Z,2.90
2023-04-15T15:20:39.353Z,2.90
2023-04-15T15:23:07.064Z,2.72
2023-04-15T15:25:34.852Z,2.38
2023-04-15T15:28:02.615Z,2.85
2023-04-15T15:30:31.717Z,3.05
2023-04-15T15:32:59.760Z,2.85
2023-04-15T15:35:27.855Z,2.37
2023-04-15T15:37:56.105Z,2.95
2023-04-15T15:40:24.090Z,2.90
2023-04-15T15:42:52.184Z,3.17
2023-04-15T15:45:20.098Z,3.25
2023-04-15T15:47:50.788Z,3.22
2023-04-15T15:50:18.903Z,3.28
2023-04-15T15:52:46.632Z,3.60
2023-04-15T15:55:14.323Z,3.33
2023-04-15T15:57:42.035Z,3.40
2023-04-15T16:00:12.766Z,3.72
2023-04-15T16:05:13.294Z,3.47
2023-04-15T16:07:41.039Z,3.90
2023-04-15T16:10:10.254Z,4.07
2023-04-15T16:12:59.662Z,4.20
2023-04-15T16:15:27.485Z,4.05
2023-04-15T16:17:55.225Z,3.90
2023-04-15T16:20:24.550Z,4.05
2023-04-15T16:22:52.253Z,4.05
2023-04-15T16:25:20.115Z,4.20
2023-04-15T16:27:59.291Z,3.80
2023-04-15T16:30:29.056Z,4.00
2023-04-15T16:32:57.397Z,4.55
2023-04-15T16:35:26.806Z,4.63
2023-04-15T16:37:54.522Z,4.70
2023-04-15T16:40:22.255Z,4.65
2023-04-15T16:42:50.688Z,4.50
2023-04-15T16:45:18.883Z,4.50
2023-04-15T16:47:46.740Z,4.50
2023-04-15T16:50:14.663Z,4.80
2023-04-15T16:52:43.752Z,4.07
2023-04-15T16:55:11.473Z,4.82
2023-04-15T16:58:00.828Z,4.88
2023-04-15T17:00:27.181Z,4.25
2023-04-15T17:02:56.204Z,5.28
2023-04-15T17:05:24.041Z,4.85
2023-04-15T17:07:53.100Z,4.72
2023-04-15T17:10:20.868Z,5.07
2023-04-15T17:12:49.936Z,5.55
2023-04-15T17:15:17.692Z,5.38
2023-04-15T17:17:45.624Z,5.38
2023-04-15T17:20:13.386Z,5.65
2023-04-15T17:22:41.120Z,5.22
2023-04-15T17:25:10.808Z,5.55
2023-04-15T17:27:39.094Z,5.53
2023-04-15T17:30:08.218Z,5.47
2023-04-15T17:32:35.996Z,5.88
2023-04-15T17:35:06.495Z,5.57
2023-04-15T17:37:34.378Z,6.03
2023-04-15T17:40:06.589Z,6.25
2023-04-15T17:42:37.173Z,6.40
2023-04-15T17:45:05.691Z,6.87
2023-04-15T17:47:33.483Z,6.65
2023-04-15T17:50:01.208Z,6.50
2023-04-15T17:52:28.972Z,7.30
2023-04-15T17:54:56.929Z,6.80
2023-04-15T17:57:25.268Z,7.00
2023-04-15T17:59:54.455Z,6.57
2023-04-15T18:02:22.407Z,7.07
2023-04-15T18:04:50.372Z,6.88
2023-04-15T18:07:18.147Z,7.40
2023-04-15T18:09:46.149Z,6.53
2023-04-15T18:12:13.827Z,8.02
2023-04-15T18:14:41.465Z,7.93
2023-04-15T18:17:10.851Z,7.53
2023-04-15T18:19:38.621Z,8.70
2023-04-15T18:22:06.532Z,7.77
2023-04-15T18:24:34.191Z,8.00
2023-04-15T18:27:02.970Z,7.95
2023-04-15T18:29:31.999Z,8.38
2023-04-15T18:32:03.044Z,7.78
2023-04-15T18:34:32.302Z,8.98
2023-04-15T18:37:00.122Z,9.57
2023-04-15T18:39:28.146Z,9.43
2023-04-15T18:41:57.283Z,9.00
2023-04-15T18:44:25.015Z,8.90
2023-04-15T18:46:52.723Z,9.27
2023-04-15T18:49:20.422Z,9.40
2023-04-15T18:51:49.683Z,9.55
2023-04-15T18:54:17.327Z,9.50
2023-04-15T18:56:45.047Z,9.43
2023-04-15T18:59:29.099Z,10.15
2023-04-15T19:01:58.733Z,10.27
2023-04-15T19:04:26.718Z,9.02
2023-04-15T19:06:56.003Z,9.38
2023-04-15T19:09:23.765Z,9.55
2023-04-15T19:11:51.435Z,9.65
2023-04-15T19:14:19.374Z,9.52
2023-04-15T19:16:47.072Z,9.30
2023-04-15T19:19:15.208Z,10.23
2023-04-15T19:21:42.910Z,10.82
2023-04-15T19:24:12.290Z,10.48
2023-04-15T19:26:39.989Z,10.75
2023-04-15T19:29:07.948Z,10.65
2023-04-15T19:31:35.739Z,11.38
2023-04-15T19:34:03.673Z,11.90
2023-04-15T19:36:32.698Z,11.83
2023-04-15T19:39:01.066Z,11.98
2023-04-15T19:41:30.157Z,11.07
2023-04-15T19:43:57.951Z,11.67
2023-04-15T19:46:25.671Z,11.57
2023-04-15T19:48:53.880Z,11.73
2023-04-15T19:51:21.690Z,11.13
2023-04-15T19:53:50.479Z,12.20
2023-04-15T19:56:18.141Z,12.45
2023-04-15T19:58:52.777Z,11.70
2023-04-15T20:01:20.797Z,12.43
2023-04-15T20:03:48.900Z,11.77
2023-04-15T20:06:16.889Z,12.35
2023-04-15T20:08:44.841Z,11.50
2023-04-15T20:11:15.193Z,13.43
2023-04-15T20:13:43.042Z,12.07
2023-04-15T20:16:12.851Z,11.52
2023-04-15T20:18:41.410Z,13.55
2023-04-15T20:21:09.119Z,12.88
2023-04-15T20:23:38.282Z,11.38
2023-04-15T20:26:06.505Z,12.48
2023-04-15T20:28:36.087Z,11.00
2023-04-15T20:31:04.032Z,11.90
2023-04-15T20:33:33.126Z,11.23
2023-04-15T20:36:01.025Z,12.68
2023-04-15T20:38:28.734Z,12.85
2023-04-15T20:40:57.788Z,12.55
2023-04-15T20:43:26.093Z,11.13
2023-04-15T20:45:54.610Z,12.75
2023-04-15T20:48:22.845Z,12.60
2023-04-15T20:50:52.157Z,12.45
2023-04-15T20:53:19.823Z,12.95
2023-04-15T20:55:47.490Z,12.73
2023-04-15T20:58:15.137Z,11.88
2023-04-15T21:00:42.893Z,13.60
2023-04-15T21:03:11.937Z,12.95
2023-04-15T21:05:40.121Z,12.38
2023-04-15T21:08:09.401Z,13.30
2023-04-15T21:10:37.068Z,13.38
2023-04-15T21:13:06.366Z,13.30
2023-04-15T21:15:34.330Z,13.75
2023-04-15T21:18:02.128Z,14.47
2023-04-15T21:20:30.071Z,13.50
2023-04-15T21:22:57.737Z,14.35
2023-04-15T21:25:27.001Z,13.57
2023-04-15T21:27:54.693Z,14.37
2023-04-15T21:30:24.426Z,15.07
2023-04-15T21:32:52.343Z,15.25
2023-04-15T21:35:20.032Z,14.07
2023-04-15T21:37:47.706Z,14.35
2023-04-15T21:40:16.016Z,15.15
2023-04-15T21:42:45.134Z,14.97
2023-04-15T21:45:13.336Z,15.60
2023-04-15T21:47:59.457Z,14.97
2023-04-15T21:50:29.007Z,16.70
2023-04-15T21:52:56.671Z,15.93
2023-04-15T21:55:24.551Z,15.38
2023-04-15T21:57:53.619Z,15.50
2023-04-15T22:00:21.320Z,15.15
2023-04-15T22:02:49.287Z,16.27
2023-04-15T22:05:17.312Z,16.33
2023-04-15T22:07:45.228Z,17.17
2023-04-15T22:10:12.903Z,17.40
2023-04-15T22:12:41.872Z,18.00
2023-04-15T22:15:11.304Z,17.00
2023-04-15T22:17:39.044Z,17.73
2023-04-15T22:20:08.272Z,16.58
2023-04-15T22:22:44.295Z,16.73
2023-04-15T22:25:12.497Z,18.63
2023-04-15T22:27:40.266Z,18.20
2023-04-15T22:30:09.227Z,17.00
2023-04-15T22:33:02.088Z,18.52
2023-04-15T22:35:29.837Z,16.08
2023-04-15T22:37:57.651Z,16.80
2023-04-15T22:40:25.363Z,17.77
2023-04-15T22:42:53.053Z,17.48
2023-04-15T22:45:20.958Z,19.13
2023-04-15T22:47:48.917Z,18.33
2023-04-15T22:50:17.971Z,19.67
2023-04-15T22:52:47.414Z,18.30
2023-04-15T22:55:15.605Z,19.08
2023-04-15T22:57:43.323Z,16.67
2023-04-15T23:00:11.550Z,19.58
2023-04-15T23:02:39.295Z,18.98
2023-04-15T23:05:12.260Z,19.20
2023-04-15T23:07:42.568Z,18.20
2023-04-15T23:10:10.630Z,19.05
2023-04-15T23:12:38.348Z,18.88
2023-04-15T23:15:06.920Z,18.65
2023-04-15T23:17:35.004Z,17.52
2023-04-15T23:20:03.155Z,17.20
2023-04-15T23:22:30.912Z,18.48
2023-04-15T23:25:00.019Z,19.30
2023-04-15T23:27:27.711Z,19.27
2023-04-15T23:29:55.406Z,18.40
2023-04-15T23:32:23.152Z,19.95
2023-04-15T23:34:52.260Z,17.30
2023-04-15T23:37:20.080Z,19.47
2023-04-15T23:39:47.856Z,19.63
2023-04-15T23:42:17.350Z,18.23
2023-04-15T23:44:45.187Z,19.35
2023-04-15T23:47:12.850Z,20.02
2023-04-15T23:49:40.961Z,18.88
2023-04-15T23:52:08.810Z,19.50
2023-04-15T23:54:36.909Z,19.00
2023-04-15T23:57:04.938Z,18.13
2023-04-15T23:59:33.985Z,19.90
